Time;durP1;ratioP1;P1;durP2;ratioP2;P2;SDS_P1;SDS_P2;PMS_P1;PMS_P2;Temp;Humidity;BMP_temperature;BMP_pressure;BME280_temperature;BME280_humidity;BME280_pressure;Samples;Min_cycle;Max_cycle;Signal;HPM_P1;HPM_P2
2023/09/14 00:02:11;;;;;;;11.80;8.02;;;23.40;99.90;;;;;;5034282;28;20033;-60
2023/09/14 00:04:36;;;;;;;9.55;8.20;;;23.70;99.90;;;;;;5034126;28;20048;-57
2023/09/14 00:07:02;;;;;;;11.32;8.27;;;23.60;99.90;;;;;;5033818;28;20398;-56
2023/09/14 00:09:28;;;;;;;12.57;8.70;;;23.30;99.90;;;;;;5031638;28;20042;-55
2023/09/14 00:11:54;;;;;;;10.45;9.10;;;23.30;99.90;;;;;;5033587;28;20037;-57
2023/09/14 00:14:19;;;;;;;12.55;9.30;;;23.20;99.90;;;;;;5033807;28;20443;-63
2023/09/14 00:16:46;;;;;;;10.65;8.95;;;23.40;99.90;;;;;;5031864;28;20500;-54
2023/09/14 00:19:13;;;;;;;12.05;8.43;;;;;;;;;;5031656;28;20405;-57
2023/09/14 00:21:42;;;;;;;11.13;8.48;;;22.90;99.90;;;;;;5033352;28;20018;-63
2023/09/14 00:24:08;;;;;;;12.57;8.60;;;;;;;;;;5033787;28;20038;-60
2023/09/14 00:26:34;;;;;;;14.15;9.68;;;;;;;;;;5033395;28;20528;-58
2023/09/14 00:29:00;;;;;;;13.82;9.57;;;;;;;;;;5015232;28;20037;-58
2023/09/14 00:31:26;;;;;;;11.27;9.18;;;;;;;;;;5031593;28;20052;-62
2023/09/14 00:33:53;;;;;;;17.98;9.27;;;;;;;;;;5033272;28;20035;-55
2023/09/14 00:36:20;;;;;;;12.25;9.38;;;;;;;;;;5033631;28;20038;-56
2023/09/14 00:38:46;;;;;;;11.55;9.80;;;;;;;;;;5033437;28;20029;-59
2023/09/14 00:41:12;;;;;;;16.17;10.57;;;;;;;;;;5033133;28;20029;-51
2023/09/14 00:43:39;;;;;;;15.55;10.10;;;;;;;;;;5033579;28;20041;-62
2023/09/14 00:46:07;;;;;;;17.50;11.38;;;;;;;;;;5033659;28;20037;-51
2023/09/14 00:48:35;;;;;;;17.83;11.10;;;21.70;99.90;;;;;;5033720;28;20479;-62
2023/09/14 00:51:03;;;;;;;16.17;10.40;;;22.90;99.90;;;;;;5033126;28;20040;-54
2023/09/14 00:53:29;;;;;;;16.02;9.90;;;23.10;99.90;;;;;;5033043;28;20060;-57
2023/09/14 00:55:56;;;;;;;16.02;10.88;;;23.00;99.90;;;;;;5033204;28;20080;-60
2023/09/14 00:58:22;;;;;;;14.65;10.00;;;22.90;99.90;;;;;;5033432;28;20037;-59
2023/09/14 01:00:49;;;;;;;18.23;10.50;;;23.00;99.90;;;;;;5032945;28;20025;-56
2023/09/14 01:03:15;;;;;;;22.95;11.15;;;23.00;99.90;;;;;;4998331;28;20041;-60
2023/09/14 01:05:41;;;;;;;21.42;9.95;;;23.00;99.90;;;;;;5035366;28;20091;-60
2023/09/14 01:08:07;;;;;;;18.13;10.00;;;23.10;99.90;;;;;;5035310;28;20136;-54
2023/09/14 01:10:33;;;;;;;17.15;10.93;;;23.20;99.90;;;;;;5036777;28;20482;-59
2023/09/14 01:12:59;;;;;;;18.63;10.68;;;23.20;99.90;;;;;;5036882;28;20029;-60
2023/09/14 01:15:48;;;;;;;15.95;10.05;;;23.00;99.90;;;;;;5037148;28;20128;-53
2023/09/14 01:18:29;;;;;;;22.20;9.90;;;23.20;99.90;;;;;;5036937;28;20030;-64
2023/09/14 01:21:20;;;;;;;15.05;9.63;;;23.10;99.90;;;;;;5036895;28;20022;-57
2023/09/14 01:23:57;;;;;;;18.02;10.73;;;23.10;99.90;;;;;;5035642;28;20058;-62
2023/09/14 01:26:24;;;;;;;19.27;10.38;;;22.90;99.90;;;;;;5031828;28;20046;-55
2023/09/14 01:28:50;;;;;;;16.58;10.02;;;23.10;99.90;;;;;;5016847;28;20370;-56
2023/09/14 01:31:16;;;;;;;13.15;9.68;;;22.90;99.90;;;;;;5016968;28;20034;-57
2023/09/14 01:33:42;;;;;;;15.45;9.63;;;22.70;99.90;;;;;;5016591;28;20355;-60
2023/09/14 01:36:30;;;;;;;14.90;9.18;;;22.80;99.90;;;;;;5016853;28;20112;-57
2023/09/14 01:38:56;;;;;;;12.43;9.45;;;22.80;99.90;;;;;;5017312;28;20084;-55
2023/09/14 01:41:22;;;;;;;15.88;9.13;;;23.10;99.90;;;;;;5016813;28;20034;-54
2023/09/14 01:43:51;;;;;;;14.05;8.90;;;23.00;99.90;;;;;;5016848;28;20121;-61
2023/09/14 01:46:17;;;;;;;14.13;9.95;;;22.80;99.90;;;;;;5016774;28;20109;-53
2023/09/14 01:48:45;;;;;;;15.38;9.18;;;22.80;99.90;;;;;;5016404;28;20113;-58
2023/09/14 01:51:11;;;;;;;17.13;10.05;;;22.90;99.90;;;;;;5016449;28;20041;-58
2023/09/14 01:53:37;;;;;;;10.02;8.05;;;23.00;99.90;;;;;;5016554;28;20045;-57
2023/09/14 01:56:03;;;;;;;10.23;7.63;;;22.90;99.90;;;;;;5016382;28;20030;-60
2023/09/14 01:58:29;;;;;;;11.85;8.63;;;23.10;99.90;;;;;;4965786;28;20068;-55
2023/09/14 02:00:56;;;;;;;9.95;8.48;;;23.00;99.90;;;;;;5016886;28;20069;-59
2023/09/14 02:03:22;;;;;;;10.82;7.88;;;23.10;99.90;;;;;;5014529;28;20048;-62
2023/09/14 02:05:58;;;;;;;12.10;8.02;;;23.20;99.90;;;;;;4997932;28;20604;-55
2023/09/14 02:08:23;;;;;;;11.63;7.80;;;23.20;99.90;;;;;;5016056;28;20073;-53
2023/09/14 02:10:49;;;;;;;12.95;8.52;;;23.40;99.90;;;;;;5016015;28;20061;-54
2023/09/14 02:13:15;;;;;;;13.80;8.20;;;23.30;99.90;;;;;;5014143;28;20084;-54
2023/09/14 02:15:41;;;;;;;14.40;8.85;;;23.30;99.90;;;;;;5015403;28;20042;-59
2023/09/14 02:18:07;;;;;;;12.40;8.40;;;23.20;99.90;;;;;;5016250;28;20038;-55
2023/09/14 02:20:35;;;;;;;15.32;8.98;;;23.30;99.90;;;;;;5016188;28;20164;-61
2023/09/14 02:23:02;;;;;;;16.40;9.18;;;23.10;99.90;;;;;;5016329;28;20486;-56
2023/09/14 02:25:27;;;;;;;14.77;8.82;;;23.40;99.90;;;;;;5016056;28;20053;-56
2023/09/14 02:27:53;;;;;;;11.43;9.32;;;;;;;;;;5015515;28;20050;-55
2023/09/14 02:30:19;;;;;;;13.38;8.88;;;;;;;;;;5015680;28;20025;-61
2023/09/14 02:32:46;;;;;;;12.30;8.35;;;;;;;;;;5016098;28;20100;-59
2023/09/14 02:35:12;;;;;;;14.75;9.13;;;;;;;;;;5015949;28;20458;-55
2023/09/14 02:37:37;;;;;;;11.90;8.73;;;23.20;99.90;;;;;;5015611;28;20533;-59
2023/09/14 02:40:06;;;;;;;13.90;8.77;;;23.40;99.90;;;;;;5015268;28;20072;-63
2023/09/14 02:42:36;;;;;;;13.88;9.23;;;23.30;99.90;;;;;;4997610;28;20577;-63
2023/09/14 02:45:03;;;;;;;12.77;8.63;;;23.40;99.90;;;;;;5015830;28;20493;-60
2023/09/14 02:47:29;;;;;;;15.93;9.23;;;23.40;99.90;;;;;;4997219;28;20104;-59
2023/09/14 02:49:54;;;;;;;12.23;8.90;;;23.10;99.90;;;;;;5015243;28;20037;-63
2023/09/14 02:52:20;;;;;;;16.88;10.07;;;23.10;99.90;;;;;;5015245;28;20486;-61
2023/09/14 02:54:46;;;;;;;13.52;9.25;;;23.00;99.90;;;;;;5015121;28;20463;-59
2023/09/14 02:57:11;;;;;;;12.35;9.48;;;22.90;99.90;;;;;;5015101;28;20104;-60
2023/09/14 02:59:37;;;;;;;14.55;9.80;;;23.00;99.90;;;;;;5033091;28;20124;-60
2023/09/14 03:02:03;;;;;;;11.90;9.57;;;;;;;;;;5034965;28;20450;-61
2023/09/14 03:04:29;;;;;;;19.08;9.65;;;22.60;99.90;;;;;;5032986;28;20038;-56
2023/09/14 03:06:56;;;;;;;13.85;9.30;;;22.70;99.90;;;;;;5034927;28;20103;-54
2023/09/14 03:09:22;;;;;;;12.52;9.50;;;22.80;99.90;;;;;;5034849;28;20033;-63
2023/09/14 03:11:47;;;;;;;15.02;9.70;;;22.80;99.90;;;;;;5034717;28;20052;-62
2023/09/14 03:14:13;;;;;;;13.95;9.40;;;22.80;99.90;;;;;;5035076;28;20079;-62
2023/09/14 03:16:39;;;;;;;16.40;10.05;;;22.80;99.90;;;;;;5034716;28;20026;-62
2023/09/14 03:19:05;;;;;;;15.80;9.50;;;22.90;99.90;;;;;;5034476;28;20028;-57
2023/09/14 03:21:31;;;;;;;17.00;9.68;;;23.00;99.90;;;;;;5016257;28;20041;-54
2023/09/14 03:23:56;;;;;;;16.92;9.40;;;23.10;99.90;;;;;;5034902;28;20366;-55
2023/09/14 03:26:23;;;;;;;15.52;9.55;;;;;;;;;;5032561;28;20051;-55
2023/09/14 03:28:50;;;;;;;16.77;9.43;;;;;;;;;;5033602;28;20022;-54
2023/09/14 03:31:16;;;;;;;14.50;9.38;;;;;;;;;;5034349;28;20104;-56
2023/09/14 03:33:43;;;;;;;13.88;9.20;;;;;;;;;;5034319;28;20071;-59
2023/09/14 03:36:09;;;;;;;14.95;8.50;;;;;;;;;;5034119;28;20033;-62
2023/09/14 03:38:35;;;;;;;14.95;9.50;;;;;;;;;;5034231;28;20021;-58
2023/09/14 03:41:02;;;;;;;11.15;9.13;;;;;;;;;;5034026;28;20024;-60
2023/09/14 03:43:28;;;;;;;12.70;9.63;;;;;;;;;;5033968;28;20393;-63
2023/09/14 03:45:54;;;;;;;18.77;10.07;;;;;;;;;;5033927;28;20390;-54
2023/09/14 03:48:20;;;;;;;16.13;9.82;;;;;;;;;;5024407;28;20038;-56
2023/09/14 03:50:46;;;;;;;14.38;9.88;;;;;;;;;;5014239;28;20474;-56
2023/09/14 03:53:13;;;;;;;11.32;10.00;;;;;;;;;;5012409;28;20033;-60
2023/09/14 03:55:39;;;;;;;16.55;9.60;;;;;;;;;;5014188;28;20037;-55
2023/09/14 03:58:05;;;;;;;14.05;9.95;;;;;;;;;;5014055;28;20359;-57
2023/09/14 04:00:31;;;;;;;17.95;9.77;;;;;;;;;;5012242;28;20390;-60
2023/09/14 04:02:58;;;;;;;15.73;10.23;;;;;;;;;;5012064;28;20044;-61
2023/09/14 04:05:24;;;;;;;16.85;10.95;;;;;;;;;;5024851;28;20029;-58
2023/09/14 04:07:50;;;;;;;14.40;9.48;;;;;;;;;;5033210;28;20025;-61
2023/09/14 04:10:16;;;;;;;15.02;10.02;;;;;;;;;;5031513;28;20087;-60
2023/09/14 04:12:42;;;;;;;14.95;9.73;;;;;;;;;;5032926;28;20040;-58
2023/09/14 04:15:09;;;;;;;14.10;10.00;;;;;;;;;;5032993;28;20061;-62
2023/09/14 04:17:35;;;;;;;13.48;9.65;;;;;;;;;;5033247;28;20033;-58
2023/09/14 04:20:05;;;;;;;13.00;9.50;;;;;;;;;;5033648;28;20079;-60
2023/09/14 04:22:31;;;;;;;15.40;9.55;;;;;;;;;;5033599;28;20025;-54
2023/09/14 04:24:58;;;;;;;13.77;9.23;;;;;;;;;;5033394;28;20061;-56
2023/09/14 04:27:24;;;;;;;15.50;8.95;;;;;;;;;;5031567;28;20049;-57
2023/09/14 04:29:50;;;;;;;14.63;8.40;;;;;;;;;;5030789;28;20037;-55
2023/09/14 04:32:16;;;;;;;19.77;10.48;;;;;;;;;;5014916;28;20041;-58
2023/09/14 04:34:42;;;;;;;19.20;9.93;;;;;;;;;;4998392;28;20064;-57
2023/09/14 04:37:08;;;;;;;20.30;10.13;;;;;;;;;;5033164;28;20025;-53
2023/09/14 05:32:05;;;;;;;15.52;11.35;;;23.50;99.90;;;;;;5108783;28;20046;-51
2023/09/14 05:56:49;;;;;;;15.60;12.80;;;23.50;99.90;;;;;;5075709;28;20477;-53
2023/09/14 05:59:40;;;;;;;14.85;13.25;;;23.60;99.90;;;;;;5075929;28;20040;-51
2023/09/14 06:06:13;;;;;;;13.27;11.80;;;24.10;99.90;;;;;;5075860;28;20031;-52
2023/09/14 06:27:04;;;;;;;13.68;10.55;;;25.30;99.90;;;;;;5077967;28;20035;-55
2023/09/14 06:40:26;;;;;;;13.77;8.10;;;26.60;99.10;;;;;;5093280;28;20114;-52
2023/09/14 06:43:17;;;;;;;21.23;15.68;;;27.50;99.90;;;;;;5094589;28;20020;-58
2023/09/14 06:46:08;;;;;;;21.08;12.90;;;;;;;;;;5094987;28;20032;-53
2023/09/14 06:59:31;;;;;;;15.07;8.02;;;27.80;96.90;;;;;;5091703;28;20051;-54
2023/09/14 07:46:31;;;;;;;16.42;8.18;;;27.90;97.10;;;;;;5080423;28;20031;-55
2023/09/14 08:06:26;;;;;;;19.15;9.05;;;;;;;;;;5094039;28;20115;-53
2023/09/14 11:20:32;;;;;;;8.93;6.45;;;;;;;;;;5074294;28;20047;-56
2023/09/14 11:50:35;;;;;;;14.85;6.97;;;32.50;91.80;;;;;;5073525;28;20111;-54
2023/09/14 12:33:17;;;;;;;8.52;5.93;;;30.60;92.90;;;;;;5093411;28;20046;-56
2023/09/14 12:56:26;;;;;;;9.60;7.45;;;;;;;;;;5071519;28;20152;-53
2023/09/14 13:21:24;;;;;;;14.50;7.40;;;31.00;99.90;;;;;;5076293;28;20128;-57
2023/09/14 13:27:59;;;;;;;9.18;6.70;;;;;;;;;;5076672;28;20495;-55
2023/09/14 14:06:13;;;;;;;9.57;7.32;;;32.80;91.60;;;;;;5054106;28;20043;-54
2023/09/14 14:30:10;;;;;;;8.43;6.15;;;31.50;93.30;;;;;;5095402;28;20138;-52
2023/09/14 15:04:24;;;;;;;7.18;4.43;;;;;;;;;;5089498;28;20521;-55
2023/09/14 15:38:18;;;;;;;7.22;4.57;;;;;;;;;;5088173;28;20080;-63
2023/09/14 15:58:06;;;;;;;8.48;6.40;;;27.40;99.90;;;;;;5039259;28;20432;-55
2023/09/14 16:04:37;;;;;;;9.07;4.00;;;27.70;99.90;;;;;;5018567;28;20049;-55
2023/09/14 16:25:36;;;;;;;10.00;4.13;;;27.70;99.90;;;;;;5048964;28;20543;-53
2023/09/14 16:47:11;;;;;;;7.18;3.38;;;26.90;97.10;;;;;;5070853;28;20475;-55
2023/09/14 16:54:04;;;;;;;9.45;4.43;;;26.70;97.30;;;;;;5069900;28;20101;-53
2023/09/14 17:20:54;;;;;;;22.05;4.30;;;26.10;99.90;;;;;;5056750;28;20075;-53
2023/09/14 17:23:20;;;;;;;9.65;4.25;;;26.10;98.20;;;;;;5061776;28;20048;-59
2023/09/14 17:25:48;;;;;;;10.52;3.55;;;25.90;98.50;;;;;;5026096;28;20033;-56
2023/09/14 17:28:15;;;;;;;10.18;3.70;;;25.80;98.50;;;;;;5068651;28;20044;-52
2023/09/14 17:30:41;;;;;;;7.57;3.67;;;25.80;98.60;;;;;;5071527;28;20119;-53
2023/09/14 17:33:07;;;;;;;6.88;3.67;;;25.70;98.70;;;;;;5071115;28;20123;-56
2023/09/14 17:35:33;;;;;;;15.70;4.10;;;25.60;98.90;;;;;;5071318;28;20058;-51
2023/09/14 17:37:59;;;;;;;7.00;3.90;;;25.70;99.00;;;;;;5070927;28;20130;-52
2023/09/14 17:40:25;;;;;;;6.47;3.33;;;;;;;;;;5071144;28;20036;-54
2023/09/14 17:42:51;;;;;;;6.57;3.50;;;25.60;98.80;;;;;;5070958;28;20365;-55
2023/09/14 17:45:18;;;;;;;5.70;3.30;;;25.60;99.00;;;;;;5035556;28;20091;-57
2023/09/14 17:47:44;;;;;;;6.88;4.18;;;25.50;99.00;;;;;;5071221;28;20062;-55
2023/09/14 17:50:10;;;;;;;6.97;4.13;;;25.40;99.20;;;;;;5027314;28;20441;-56
2023/09/14 17:52:36;;;;;;;5.75;4.05;;;25.40;99.30;;;;;;5038288;28;20036;-52
2023/09/14 17:55:03;;;;;;;6.03;3.78;;;;;;;;;;5072797;28;20036;-57
2023/09/14 17:57:29;;;;;;;7.32;3.85;;;25.30;99.20;;;;;;5077742;28;20028;-56
2023/09/14 17:59:55;;;;;;;6.68;4.20;;;;;;;;;;5067202;28;20040;-54
2023/09/14 18:02:21;;;;;;;10.07;4.13;;;;;;;;;;5040497;28;20048;-60
2023/09/14 18:04:47;;;;;;;6.28;3.60;;;25.20;99.30;;;;;;5075469;28;20036;-52
2023/09/14 18:07:13;;;;;;;4.95;3.75;;;25.00;99.60;;;;;;5038939;28;20052;-56
2023/09/14 18:09:39;;;;;;;6.43;3.88;;;25.00;99.70;;;;;;5072161;28;20029;-55
2023/09/14 18:12:04;;;;;;;6.47;3.53;;;24.90;99.70;;;;;;5073988;28;20434;-52
2023/09/14 18:14:30;;;;;;;4.30;3.47;;;24.90;99.90;;;;;;5074175;28;20033;-55
2023/09/14 18:16:57;;;;;;;7.53;4.20;;;24.80;99.90;;;;;;5074391;28;20032;-55
2023/09/14 18:19:24;;;;;;;9.20;4.15;;;24.80;99.90;;;;;;5074175;28;20033;-57
2023/09/14 18:21:50;;;;;;;7.22;4.03;;;24.80;99.90;;;;;;5073551;28;20484;-60
2023/09/14 18:24:16;;;;;;;9.35;4.63;;;;;;;;;;5073939;28;20086;-54
2023/09/14 18:26:42;;;;;;;7.05;3.95;;;24.60;99.90;;;;;;5074052;28;20043;-58
2023/09/14 18:29:10;;;;;;;5.28;4.50;;;24.50;99.90;;;;;;5021973;28;20471;-57
2023/09/14 18:31:36;;;;;;;5.93;4.40;;;;;;;;;;5073683;28;20033;-55
2023/09/14 18:34:02;;;;;;;10.93;5.10;;;24.40;99.90;;;;;;5073694;28;20068;-54
2023/09/14 18:36:28;;;;;;;5.85;4.47;;;24.40;99.90;;;;;;5072131;28;20063;-55
2023/09/14 18:38:54;;;;;;;10.40;4.43;;;24.40;99.90;;;;;;5036413;28;20068;-52
2023/09/14 18:41:20;;;;;;;12.48;5.35;;;24.40;99.90;;;;;;5073563;28;20531;-54
2023/09/14 18:43:46;;;;;;;6.97;4.50;;;24.30;99.90;;;;;;5035638;28;20120;-58
2023/09/14 18:46:15;;;;;;;6.70;4.50;;;24.30;99.90;;;;;;5081955;28;20119;-57
2023/09/14 18:48:43;;;;;;;6.97;4.93;;;;;;;;;;5074908;28;20036;-54
2023/09/14 18:51:09;;;;;;;5.82;4.55;;;;;;;;;;5082280;28;20032;-53
2023/09/14 18:53:35;;;;;;;7.43;4.80;;;;;;;;;;5071206;28;20085;-58
2023/09/14 18:56:01;;;;;;;10.00;5.45;;;;;;;;;;5035225;28;20049;-57
2023/09/14 18:58:27;;;;;;;7.72;5.47;;;;;;;;;;5077877;28;20028;-55
2023/09/14 19:01:14;;;;;;;6.28;4.68;;;;;;;;;;5054052;28;20053;-58
2023/09/14 19:03:40;;;;;;;5.82;4.97;;;;;;;;;;5030796;28;20029;-57
2023/09/14 19:06:06;;;;;;;9.80;5.38;;;;;;;;;;5030732;28;20060;-57
2023/09/14 19:08:32;;;;;;;8.45;5.22;;;;;;;;;;5030545;28;20041;-53
2023/09/14 19:10:58;;;;;;;9.30;5.30;;;;;;;;;;5030880;28;20029;-53
2023/09/14 19:13:24;;;;;;;9.68;5.30;;;;;;;;;;5020230;28;20045;-52
2023/09/14 19:15:51;;;;;;;7.05;5.20;;;;;;;;;;5030830;28;20045;-54
2023/09/14 19:18:17;;;;;;;7.70;5.18;;;;;;;;;;5029751;28;20038;-53
2023/09/14 19:20:46;;;;;;;8.85;5.63;;;23.80;99.90;;;;;;5030081;28;20099;-55
2023/09/14 19:23:13;;;;;;;9.25;5.40;;;24.00;99.90;;;;;;5007650;28;20041;-54
2023/09/14 19:25:40;;;;;;;7.05;5.70;;;23.90;99.90;;;;;;5022020;28;20033;-52
2023/09/14 19:28:07;;;;;;;9.80;5.63;;;23.90;99.90;;;;;;5022932;28;20560;-54
2023/09/14 19:30:34;;;;;;;8.13;5.07;;;23.90;99.90;;;;;;5012583;28;20420;-56
2023/09/14 19:33:01;;;;;;;6.90;4.88;;;24.10;99.90;;;;;;5026421;28;20104;-54
2023/09/14 19:35:27;;;;;;;9.70;5.32;;;23.90;99.90;;;;;;5059111;28;20044;-53
2023/09/14 19:37:52;;;;;;;8.10;5.47;;;23.80;99.90;;;;;;5066056;28;20039;-55
2023/09/14 19:40:18;;;;;;;7.65;5.57;;;24.10;99.90;;;;;;5065901;28;21910;-54
2023/09/14 19:42:44;;;;;;;7.75;5.32;;;24.00;99.90;;;;;;5064863;28;20357;-56
2023/09/14 19:45:10;;;;;;;6.70;5.10;;;23.90;99.90;;;;;;5062888;28;20055;-54
2023/09/14 19:47:39;;;;;;;7.35;5.35;;;23.90;99.90;;;;;;5068177;28;20090;-55
2023/09/14 19:50:07;;;;;;;7.60;4.70;;;23.80;99.90;;;;;;5066530;28;20059;-52
2023/09/14 19:52:34;;;;;;;11.20;5.47;;;23.80;99.90;;;;;;5067643;28;21039;-55
2023/09/14 19:55:02;;;;;;;12.13;5.35;;;23.80;99.90;;;;;;5070740;28;20033;-54
2023/09/14 19:57:28;;;;;;;7.80;5.45;;;23.90;99.90;;;;;;5064965;28;20032;-54
2023/09/14 19:59:54;;;;;;;10.52;6.32;;;;;;;;;;5062136;28;20040;-54
2023/09/14 20:02:20;;;;;;;7.78;5.40;;;;;;;;;;5065331;28;20099;-52
2023/09/14 20:04:47;;;;;;;10.57;5.63;;;23.60;99.90;;;;;;5023249;28;20036;-54
2023/09/14 20:07:34;;;;;;;7.68;5.60;;;;;;;;;;5036257;28;20507;-55
2023/09/14 20:10:03;;;;;;;7.20;6.10;;;23.50;99.90;;;;;;5037961;28;20041;-54
2023/09/14 20:12:30;;;;;;;7.00;5.53;;;23.40;99.90;;;;;;5031956;28;20071;-55
2023/09/14 20:14:56;;;;;;;6.40;5.63;;;23.10;99.90;;;;;;5013189;28;20033;-52
2023/09/14 20:17:22;;;;;;;7.03;6.05;;;23.30;99.90;;;;;;4996794;28;20048;-52
2023/09/14 20:19:47;;;;;;;12.10;5.82;;;23.30;99.90;;;;;;4983784;28;20500;-55
2023/09/14 20:22:16;;;;;;;8.10;5.03;;;23.30;99.90;;;;;;4991317;28;20064;-54
2023/09/14 20:24:50;;;;;;;10.85;6.13;;;;;;;;;;5009825;28;20049;-54
2023/09/14 20:27:16;;;;;;;10.65;6.03;;;23.10;99.90;;;;;;5008622;28;20057;-51
2023/09/14 20:29:41;;;;;;;11.50;6.50;;;23.20;99.90;;;;;;5009823;28;20445;-53
2023/09/14 20:32:07;;;;;;;9.80;5.70;;;23.40;99.90;;;;;;5008844;28;20416;-56
2023/09/14 20:34:33;;;;;;;9.95;5.88;;;23.30;99.90;;;;;;4986010;28;20428;-54
2023/09/14 20:37:00;;;;;;;8.57;5.72;;;23.60;99.90;;;;;;5012329;28;20033;-55
2023/09/14 20:39:28;;;;;;;9.52;6.13;;;23.60;99.90;;;;;;5051556;28;20146;-52
2023/09/14 20:41:54;;;;;;;8.57;5.18;;;23.40;99.90;;;;;;5041221;28;20136;-53
2023/09/14 20:44:21;;;;;;;13.75;5.68;;;23.50;99.90;;;;;;5040835;28;20497;-53
2023/09/14 20:46:49;;;;;;;7.82;5.57;;;23.70;99.90;;;;;;5035808;28;20042;-53
2023/09/14 20:49:15;;;;;;;9.27;5.50;;;23.80;99.90;;;;;;5032940;28;20029;-54
2023/09/14 20:51:44;;;;;;;10.65;5.75;;;23.60;99.90;;;;;;5031901;28;20041;-54
2023/09/14 20:54:10;;;;;;;7.00;6.00;;;23.80;99.90;;;;;;5042943;28;20040;-51
2023/09/14 20:56:36;;;;;;;7.10;5.78;;;23.80;99.90;;;;;;5031508;28;20033;-53
2023/09/14 20:59:06;;;;;;;8.00;5.95;;;23.70;99.90;;;;;;5039419;28;20448;-52
2023/09/14 21:01:32;;;;;;;7.72;5.68;;;23.90;99.90;;;;;;5046118;28;20084;-51
2023/09/14 21:03:59;;;;;;;10.27;5.78;;;23.50;99.90;;;;;;5049261;28;20069;-54
2023/09/14 21:06:25;;;;;;;8.73;5.75;;;23.50;99.90;;;;;;5043433;28;20091;-53
2023/09/14 21:08:53;;;;;;;6.85;5.10;;;23.40;99.90;;;;;;5040615;28;20076;-54
2023/09/14 21:11:19;;;;;;;10.95;5.57;;;23.40;99.90;;;;;;5040434;28;20033;-53
2023/09/14 21:13:44;;;;;;;9.18;5.50;;;23.40;99.90;;;;;;5043061;28;20124;-54
2023/09/14 21:16:10;;;;;;;10.07;6.28;;;23.30;99.90;;;;;;5039043;28;20049;-52
2023/09/14 21:18:36;;;;;;;11.18;5.40;;;23.40;99.90;;;;;;5050631;28;20045;-54
2023/09/14 21:21:02;;;;;;;6.78;5.80;;;23.40;99.90;;;;;;5039292;28;20454;-56
2023/09/14 21:23:28;;;;;;;5.65;4.95;;;23.40;99.90;;;;;;5063212;28;20056;-55
2023/09/14 21:25:58;;;;;;;7.43;5.30;;;23.40;99.90;;;;;;5070102;28;20388;-52
2023/09/14 21:28:26;;;;;;;7.82;5.75;;;23.40;99.90;;;;;;5036053;28;20048;-55
2023/09/14 21:30:55;;;;;;;6.90;5.18;;;23.30;99.90;;;;;;4988796;28;20455;-54
2023/09/14 21:33:22;;;;;;;10.60;4.97;;;23.30;99.90;;;;;;5064846;28;20045;-51
2023/09/14 21:35:56;;;;;;;7.78;5.57;;;23.20;99.90;;;;;;5071616;28;20388;-52
2023/09/14 21:38:22;;;;;;;10.50;5.65;;;23.30;99.90;;;;;;5070439;28;20034;-54
2023/09/14 21:40:59;;;;;;;6.72;4.88;;;23.30;99.90;;;;;;5065631;28;20064;-52
2023/09/14 21:43:29;;;;;;;6.53;4.50;;;23.30;99.90;;;;;;5041735;28;20072;-55
2023/09/14 21:45:55;;;;;;;7.47;4.90;;;23.40;99.90;;;;;;5072707;28;20036;-52
2023/09/14 21:48:22;;;;;;;6.88;5.43;;;23.10;99.90;;;;;;5052211;28;20037;-52
2023/09/14 21:50:48;;;;;;;8.68;5.30;;;23.10;99.90;;;;;;5071152;28;20036;-55
2023/09/14 21:53:14;;;;;;;7.25;4.90;;;;;;;;;;5072330;28;20020;-54
2023/09/14 21:55:42;;;;;;;6.40;4.97;;;23.10;99.90;;;;;;5073084;28;20065;-52
2023/09/14 21:58:09;;;;;;;6.85;4.88;;;23.10;99.90;;;;;;5074597;28;20031;-51
2023/09/14 22:00:36;;;;;;;6.90;5.00;;;22.90;99.90;;;;;;5069911;28;20040;-52
2023/09/14 22:03:02;;;;;;;5.93;5.10;;;;;;;;;;5070467;28;20111;-54
2023/09/14 22:05:28;;;;;;;9.60;5.50;;;22.80;99.90;;;;;;5074674;28;20050;-55
2023/09/14 22:07:54;;;;;;;5.03;4.55;;;22.80;99.90;;;;;;5074577;28;20024;-53
2023/09/14 22:10:21;;;;;;;7.68;5.18;;;22.60;99.90;;;;;;5056303;28;20556;-52
2023/09/14 22:12:48;;;;;;;8.88;5.00;;;22.70;99.90;;;;;;5055514;28;20037;-52
2023/09/14 22:15:14;;;;;;;7.93;5.35;;;22.70;99.90;;;;;;5074160;28;20115;-53
2023/09/14 22:17:44;;;;;;;6.10;5.03;;;22.70;99.90;;;;;;5074356;28;20032;-54
2023/09/14 22:20:17;;;;;;;5.53;4.80;;;22.70;99.90;;;;;;5073999;28;20115;-53
2023/09/14 22:22:47;;;;;;;7.78;4.88;;;22.60;99.90;;;;;;5090008;28;20080;-51
2023/09/14 22:25:14;;;;;;;6.35;4.90;;;22.60;99.90;;;;;;5094740;28;20423;-54
2023/09/14 22:27:41;;;;;;;7.15;4.72;;;22.80;99.90;;;;;;5094338;28;20158;-54
2023/09/14 22:30:09;;;;;;;5.82;4.82;;;;;;;;;;5089326;28;20032;-55
2023/09/14 22:32:35;;;;;;;6.82;4.82;;;22.40;99.90;;;;;;5058449;28;20047;-53
2023/09/14 22:35:06;;;;;;;7.13;4.28;;;;;;;;;;5094081;28;20028;-52
2023/09/14 22:37:33;;;;;;;7.28;4.40;;;;;;;;;;5093897;28;20035;-54
2023/09/14 22:39:59;;;;;;;8.45;4.70;;;;;;;;;;5093840;28;20506;-53
2023/09/14 22:42:25;;;;;;;5.60;4.55;;;;;;;;;;5092142;28;20456;-55
2023/09/14 22:44:51;;;;;;;4.97;4.45;;;;;;;;;;5094125;28;20032;-52
2023/09/14 22:47:18;;;;;;;5.20;4.63;;;;;;;;;;5093156;28;20058;-55
2023/09/14 22:49:45;;;;;;;5.70;4.53;;;;;;;;;;5093591;28;20040;-54
2023/09/14 22:52:12;;;;;;;5.82;4.70;;;;;;;;;;5094127;28;20043;-53
2023/09/14 22:54:38;;;;;;;6.15;4.13;;;;;;;;;;5058119;28;20044;-55
2023/09/14 22:57:05;;;;;;;5.78;4.43;;;;;;;;;;5093799;28;20028;-54
2023/09/14 22:59:34;;;;;;;4.68;4.13;;;;;;;;;;5093524;28;20062;-52
2023/09/14 23:02:00;;;;;;;4.78;3.92;;;;;;;;;;5093439;28;20036;-54
2023/09/14 23:04:27;;;;;;;7.15;4.60;;;;;;;;;;5093618;28;20031;-54
2023/09/14 23:06:53;;;;;;;7.18;4.10;;;;;;;;;;5093295;28;20043;-53
2023/09/14 23:09:19;;;;;;;5.00;4.13;;;;;;;;;;5093498;28;20036;-55
2023/09/14 23:11:45;;;;;;;4.80;3.80;;;;;;;;;;5093120;28;20086;-53
2023/09/14 23:14:12;;;;;;;5.95;4.18;;;22.40;99.90;;;;;;5093432;28;20380;-54
2023/09/14 23:16:52;;;;;;;5.43;4.22;;;22.40;99.90;;;;;;5093502;28;20028;-55
2023/09/14 23:19:26;;;;;;;5.38;3.70;;;22.30;99.90;;;;;;5093318;28;20368;-52
2023/09/14 23:21:52;;;;;;;8.13;4.68;;;22.30;99.90;;;;;;5093050;28;20048;-53
2023/09/14 23:24:19;;;;;;;6.70;4.28;;;21.30;99.90;;;;;;5093065;28;20161;-52
2023/09/14 23:26:45;;;;;;;5.57;4.15;;;;;;;;;;5081944;28;20031;-55
2023/09/14 23:29:12;;;;;;;5.07;4.07;;;;;;;;;;5086780;28;20020;-53
2023/09/14 23:31:42;;;;;;;6.43;4.07;;;;;;;;;;5088492;28;20043;-51
2023/09/14 23:34:17;;;;;;;6.45;4.18;;;;;;;;;;5090833;28;20520;-55
2023/09/14 23:36:47;;;;;;;6.90;4.15;;;;;;;;;;5091286;28;20483;-52
2023/09/14 23:39:17;;;;;;;6.38;4.50;;;;;;;;;;5091283;28;20383;-54
2023/09/14 23:41:44;;;;;;;5.70;4.07;;;;;;;;;;5092644;28;20040;-55
2023/09/14 23:44:12;;;;;;;6.80;3.70;;;;;;;;;;5093161;28;20024;-53
2023/09/14 23:46:38;;;;;;;5.05;3.70;;;;;;;;;;5091845;28;20036;-54
2023/09/14 23:49:07;;;;;;;7.60;4.40;;;;;;;;;;5092728;28;20464;-52
2023/09/14 23:51:35;;;;;;;7.70;4.05;;;;;;;;;;5092858;28;20044;-51
2023/09/14 23:54:01;;;;;;;6.85;4.05;;;;;;;;;;5092437;28;20042;-52
2023/09/14 23:56:27;;;;;;;5.57;4.18;;;22.00;99.90;;;;;;5092667;28;20023;-54
2023/09/14 23:58:53;;;;;;;5.82;4.13;;;;;;;;;;5092347;28;20463;-52
